sensor_id;sensor_type;location;lat;lon;timestamp;P1;durP1;ratioP1;P2;durP2;ratioP2
64487;SDS011;50864;45.050;39.014;2022-08-19T00:00:05;286.55;;;91.03;;
64487;SDS011;50864;45.050;39.014;2022-08-19T00:02:31;319.08;;;97.28;;
64487;SDS011;50864;45.050;39.014;2022-08-19T00:04:57;390.15;;;111.18;;
64487;SDS011;50864;45.050;39.014;2022-08-19T00:07:23;374.45;;;107.22;;
64487;SDS011;50864;45.050;39.014;2022-08-19T00:09:49;339.42;;;101.15;;
64487;SDS011;50864;45.050;39.014;2022-08-19T00:12:15;424.20;;;118.97;;
64487;SDS011;50864;45.050;39.014;2022-08-19T00:14:41;329.00;;;99.47;;
64487;SDS011;50864;45.050;39.014;2022-08-19T00:17:07;392.62;;;112.00;;
64487;SDS011;50864;45.050;39.014;2022-08-19T00:19:34;345.88;;;104.18;;
64487;SDS011;50864;45.050;39.014;2022-08-19T00:22:00;403.48;;;113.62;;
64487;SDS011;50864;45.050;39.014;2022-08-19T00:24:26;361.87;;;105.43;;
64487;SDS011;50864;45.050;39.014;2022-08-19T00:26:52;416.60;;;116.68;;
64487;SDS011;50864;45.050;39.014;2022-08-19T00:29:19;413.23;;;115.62;;
64487;SDS011;50864;45.050;39.014;2022-08-19T00:31:45;422.63;;;118.10;;
64487;SDS011;50864;45.050;39.014;2022-08-19T00:34:11;325.55;;;99.37;;
64487;SDS011;50864;45.050;39.014;2022-08-19T00:36:37;406.65;;;114.37;;
64487;SDS011;50864;45.050;39.014;2022-08-19T00:39:04;403.40;;;113.70;;
64487;SDS011;50864;45.050;39.014;2022-08-19T00:41:30;434.20;;;118.45;;
64487;SDS011;50864;45.050;39.014;2022-08-19T00:43:57;462.92;;;126.35;;
64487;SDS011;50864;45.050;39.014;2022-08-19T00:46:23;413.25;;;117.78;;
64487;SDS011;50864;45.050;39.014;2022-08-19T00:48:49;379.92;;;111.68;;
64487;SDS011;50864;45.050;39.014;2022-08-19T00:51:15;432.65;;;122.47;;
64487;SDS011;50864;45.050;39.014;2022-08-19T00:53:41;397.42;;;114.47;;
64487;SDS011;50864;45.050;39.014;2022-08-19T00:56:09;229.68;;;82.40;;
64487;SDS011;50864;45.050;39.014;2022-08-19T00:58:36;378.45;;;110.53;;
64487;SDS011;50864;45.050;39.014;2022-08-19T01:01:03;355.33;;;106.43;;
64487;SDS011;50864;45.050;39.014;2022-08-19T01:03:30;388.15;;;111.45;;
64487;SDS011;50864;45.050;39.014;2022-08-19T01:05:55;332.37;;;100.25;;
64487;SDS011;50864;45.050;39.014;2022-08-19T01:08:22;351.02;;;104.00;;
64487;SDS011;50864;45.050;39.014;2022-08-19T01:10:52;329.92;;;101.75;;
64487;SDS011;50864;45.050;39.014;2022-08-19T01:13:20;358.38;;;106.15;;
64487;SDS011;50864;45.050;39.014;2022-08-19T01:15:54;396.42;;;114.22;;
64487;SDS011;50864;45.050;39.014;2022-08-19T01:18:20;344.30;;;101.53;;
64487;SDS011;50864;45.050;39.014;2022-08-19T01:20:47;364.17;;;106.05;;
64487;SDS011;50864;45.050;39.014;2022-08-19T01:23:13;411.15;;;115.18;;
64487;SDS011;50864;45.050;39.014;2022-08-19T01:25:47;300.62;;;93.50;;
64487;SDS011;50864;45.050;39.014;2022-08-19T01:28:16;251.88;;;85.07;;
64487;SDS011;50864;45.050;39.014;2022-08-19T01:30:43;291.23;;;92.30;;
64487;SDS011;50864;45.050;39.014;2022-08-19T01:33:09;255.25;;;84.32;;
64487;SDS011;50864;45.050;39.014;2022-08-19T01:35:35;295.75;;;92.85;;
64487;SDS011;50864;45.050;39.014;2022-08-19T01:38:03;260.33;;;85.57;;
64487;SDS011;50864;45.050;39.014;2022-08-19T01:40:33;297.08;;;95.10;;
64487;SDS011;50864;45.050;39.014;2022-08-19T01:43:00;309.00;;;96.40;;
64487;SDS011;50864;45.050;39.014;2022-08-19T01:45:27;355.30;;;105.22;;
64487;SDS011;50864;45.050;39.014;2022-08-19T01:47:54;331.70;;;100.40;;
64487;SDS011;50864;45.050;39.014;2022-08-19T01:50:20;380.23;;;109.25;;
64487;SDS011;50864;45.050;39.014;2022-08-19T01:52:46;367.85;;;107.35;;
64487;SDS011;50864;45.050;39.014;2022-08-19T01:55:17;432.20;;;122.10;;
64487;SDS011;50864;45.050;39.014;2022-08-19T01:57:48;400.73;;;114.37;;
64487;SDS011;50864;45.050;39.014;2022-08-19T02:00:16;393.30;;;113.07;;
64487;SDS011;50864;45.050;39.014;2022-08-19T02:02:43;347.50;;;104.25;;
64487;SDS011;50864;45.050;39.014;2022-08-19T02:05:09;347.50;;;104.78;;
64487;SDS011;50864;45.050;39.014;2022-08-19T02:07:36;377.98;;;109.25;;
64487;SDS011;50864;45.050;39.014;2022-08-19T02:10:03;326.40;;;100.15;;
64487;SDS011;50864;45.050;39.014;2022-08-19T02:12:29;408.87;;;116.03;;
64487;SDS011;50864;45.050;39.014;2022-08-19T02:14:55;452.40;;;126.10;;
64487;SDS011;50864;45.050;39.014;2022-08-19T02:17:21;386.33;;;111.88;;
64487;SDS011;50864;45.050;39.014;2022-08-19T02:19:47;336.73;;;103.18;;
64487;SDS011;50864;45.050;39.014;2022-08-19T02:22:14;322.92;;;99.10;;
64487;SDS011;50864;45.050;39.014;2022-08-19T02:24:40;374.60;;;108.95;;
64487;SDS011;50864;45.050;39.014;2022-08-19T02:27:06;284.10;;;90.28;;
64487;SDS011;50864;45.050;39.014;2022-08-19T02:29:32;285.77;;;91.75;;
64487;SDS011;50864;45.050;39.014;2022-08-19T02:31:58;294.30;;;94.37;;
64487;SDS011;50864;45.050;39.014;2022-08-19T02:34:24;291.40;;;92.55;;
64487;SDS011;50864;45.050;39.014;2022-08-19T02:36:50;259.20;;;87.20;;
64487;SDS011;50864;45.050;39.014;2022-08-19T02:39:17;247.52;;;84.78;;
64487;SDS011;50864;45.050;39.014;2022-08-19T02:41:43;241.43;;;83.25;;
64487;SDS011;50864;45.050;39.014;2022-08-19T02:44:09;247.05;;;84.03;;
64487;SDS011;50864;45.050;39.014;2022-08-19T02:46:35;248.93;;;84.62;;
64487;SDS011;50864;45.050;39.014;2022-08-19T02:49:03;288.10;;;92.20;;
64487;SDS011;50864;45.050;39.014;2022-08-19T02:51:35;272.48;;;90.43;;
64487;SDS011;50864;45.050;39.014;2022-08-19T02:54:02;295.52;;;94.57;;
64487;SDS011;50864;45.050;39.014;2022-08-19T02:56:28;261.27;;;87.85;;
64487;SDS011;50864;45.050;39.014;2022-08-19T02:58:54;255.55;;;87.05;;
64487;SDS011;50864;45.050;39.014;2022-08-19T03:03:46;281.27;;;90.00;;
64487;SDS011;50864;45.050;39.014;2022-08-19T03:06:13;224.70;;;79.97;;
64487;SDS011;50864;45.050;39.014;2022-08-19T03:08:41;225.43;;;80.62;;
64487;SDS011;50864;45.050;39.014;2022-08-19T03:11:12;265.45;;;86.90;;
64487;SDS011;50864;45.050;39.014;2022-08-19T03:13:38;275.42;;;89.47;;
64487;SDS011;50864;45.050;39.014;2022-08-19T03:16:04;307.80;;;95.15;;
64487;SDS011;50864;45.050;39.014;2022-08-19T03:18:31;273.33;;;88.22;;
64487;SDS011;50864;45.050;39.014;2022-08-19T03:20:56;268.55;;;85.35;;
64487;SDS011;50864;45.050;39.014;2022-08-19T03:23:23;264.75;;;86.47;;
64487;SDS011;50864;45.050;39.014;2022-08-19T03:25:50;269.35;;;86.12;;
64487;SDS011;50864;45.050;39.014;2022-08-19T03:28:16;271.85;;;87.40;;
64487;SDS011;50864;45.050;39.014;2022-08-19T03:30:42;303.00;;;92.80;;
64487;SDS011;50864;45.050;39.014;2022-08-19T03:33:21;264.08;;;85.95;;
64487;SDS011;50864;45.050;39.014;2022-08-19T03:35:58;266.65;;;86.45;;
64487;SDS011;50864;45.050;39.014;2022-08-19T03:38:24;294.55;;;92.53;;
64487;SDS011;50864;45.050;39.014;2022-08-19T03:40:50;251.98;;;84.90;;
64487;SDS011;50864;45.050;39.014;2022-08-19T03:43:16;278.65;;;89.37;;
64487;SDS011;50864;45.050;39.014;2022-08-19T03:45:43;239.35;;;81.47;;
64487;SDS011;50864;45.050;39.014;2022-08-19T03:48:09;274.30;;;88.20;;
64487;SDS011;50864;45.050;39.014;2022-08-19T03:50:38;256.87;;;84.32;;
64487;SDS011;50864;45.050;39.014;2022-08-19T03:53:06;251.20;;;84.15;;
64487;SDS011;50864;45.050;39.014;2022-08-19T03:55:39;219.93;;;78.15;;
64487;SDS011;50864;45.050;39.014;2022-08-19T03:58:04;234.50;;;77.22;;
64487;SDS011;50864;45.050;39.014;2022-08-19T04:00:31;246.05;;;80.72;;
64487;SDS011;50864;45.050;39.014;2022-08-19T04:02:59;202.98;;;72.35;;
64487;SDS011;50864;45.050;39.014;2022-08-19T04:05:26;204.40;;;72.18;;
64487;SDS011;50864;45.050;39.014;2022-08-19T04:07:53;234.80;;;79.72;;
64487;SDS011;50864;45.050;39.014;2022-08-19T04:10:22;274.55;;;87.03;;
64487;SDS011;50864;45.050;39.014;2022-08-19T04:12:49;241.02;;;74.25;;
64487;SDS011;50864;45.050;39.014;2022-08-19T04:15:15;204.38;;;69.47;;
64487;SDS011;50864;45.050;39.014;2022-08-19T04:17:41;219.73;;;75.22;;
64487;SDS011;50864;45.050;39.014;2022-08-19T04:20:07;247.70;;;79.60;;
64487;SDS011;50864;45.050;39.014;2022-08-19T04:22:33;189.23;;;68.65;;
64487;SDS011;50864;45.050;39.014;2022-08-19T04:24:59;227.13;;;77.55;;
64487;SDS011;50864;45.050;39.014;2022-08-19T04:27:25;192.52;;;70.87;;
64487;SDS011;50864;45.050;39.014;2022-08-19T04:29:51;226.70;;;77.05;;
64487;SDS011;50864;45.050;39.014;2022-08-19T04:32:20;244.25;;;79.15;;
64487;SDS011;50864;45.050;39.014;2022-08-19T04:34:48;234.45;;;78.95;;
64487;SDS011;50864;45.050;39.014;2022-08-19T04:37:13;167.27;;;64.80;;
64487;SDS011;50864;45.050;39.014;2022-08-19T04:39:40;226.15;;;75.80;;
64487;SDS011;50864;45.050;39.014;2022-08-19T04:42:24;160.60;;;63.47;;
64487;SDS011;50864;45.050;39.014;2022-08-19T04:45:06;168.48;;;64.87;;
64487;SDS011;50864;45.050;39.014;2022-08-19T04:47:36;179.10;;;66.87;;
64487;SDS011;50864;45.050;39.014;2022-08-19T04:50:02;176.63;;;64.57;;
64487;SDS011;50864;45.050;39.014;2022-08-19T04:52:28;126.28;;;52.95;;
64487;SDS011;50864;45.050;39.014;2022-08-19T04:54:57;174.35;;;62.35;;
64487;SDS011;50864;45.050;39.014;2022-08-19T04:57:22;173.52;;;61.85;;
64487;SDS011;50864;45.050;39.014;2022-08-19T04:59:53;133.07;;;49.10;;
64487;SDS011;50864;45.050;39.014;2022-08-19T05:02:20;117.00;;;46.00;;
64487;SDS011;50864;45.050;39.014;2022-08-19T05:04:45;132.05;;;52.62;;
64487;SDS011;50864;45.050;39.014;2022-08-19T05:07:12;150.25;;;55.83;;
64487;SDS011;50864;45.050;39.014;2022-08-19T05:09:37;122.68;;;50.90;;
64487;SDS011;50864;45.050;39.014;2022-08-19T05:12:03;145.32;;;55.25;;
64487;SDS011;50864;45.050;39.014;2022-08-19T05:14:30;95.62;;;41.45;;
64487;SDS011;50864;45.050;39.014;2022-08-19T05:16:56;129.15;;;49.80;;
64487;SDS011;50864;45.050;39.014;2022-08-19T05:19:21;151.43;;;54.47;;
64487;SDS011;50864;45.050;39.014;2022-08-19T05:22:09;133.50;;;54.50;;
64487;SDS011;50864;45.050;39.014;2022-08-19T05:24:53;136.55;;;56.13;;
64487;SDS011;50864;45.050;39.014;2022-08-19T05:27:23;139.77;;;56.42;;
64487;SDS011;50864;45.050;39.014;2022-08-19T05:29:49;146.23;;;56.78;;
64487;SDS011;50864;45.050;39.014;2022-08-19T05:32:15;128.43;;;53.35;;
64487;SDS011;50864;45.050;39.014;2022-08-19T05:34:41;175.32;;;61.40;;
64487;SDS011;50864;45.050;39.014;2022-08-19T05:37:07;116.20;;;47.83;;
64487;SDS011;50864;45.050;39.014;2022-08-19T05:39:34;150.02;;;54.03;;
64487;SDS011;50864;45.050;39.014;2022-08-19T05:42:01;154.00;;;54.65;;
64487;SDS011;50864;45.050;39.014;2022-08-19T05:44:30;125.80;;;49.17;;
64487;SDS011;50864;45.050;39.014;2022-08-19T05:46:59;151.02;;;53.72;;
64487;SDS011;50864;45.050;39.014;2022-08-19T05:49:26;127.95;;;49.92;;
64487;SDS011;50864;45.050;39.014;2022-08-19T05:51:52;97.30;;;41.33;;
64487;SDS011;50864;45.050;39.014;2022-08-19T05:54:20;100.80;;;43.85;;
64487;SDS011;50864;45.050;39.014;2022-08-19T05:56:47;132.30;;;49.30;;
64487;SDS011;50864;45.050;39.014;2022-08-19T05:59:14;127.07;;;46.05;;
64487;SDS011;50864;45.050;39.014;2022-08-19T06:01:40;93.60;;;40.85;;
64487;SDS011;50864;45.050;39.014;2022-08-19T06:04:07;86.65;;;38.83;;
64487;SDS011;50864;45.050;39.014;2022-08-19T06:06:33;87.03;;;39.03;;
64487;SDS011;50864;45.050;39.014;2022-08-19T06:09:00;116.65;;;44.63;;
64487;SDS011;50864;45.050;39.014;2022-08-19T06:13:53;92.50;;;40.25;;
64487;SDS011;50864;45.050;39.014;2022-08-19T06:16:21;84.55;;;38.60;;
64487;SDS011;50864;45.050;39.014;2022-08-19T06:18:49;80.00;;;36.22;;
64487;SDS011;50864;45.050;39.014;2022-08-19T06:21:20;141.27;;;46.08;;
64487;SDS011;50864;45.050;39.014;2022-08-19T06:23:46;178.27;;;53.72;;
64487;SDS011;50864;45.050;39.014;2022-08-19T06:26:14;155.87;;;47.38;;
64487;SDS011;50864;45.050;39.014;2022-08-19T06:28:39;245.00;;;63.45;;
64487;SDS011;50864;45.050;39.014;2022-08-19T06:31:12;244.93;;;61.97;;
64487;SDS011;50864;45.050;39.014;2022-08-19T06:33:40;262.73;;;67.10;;
64487;SDS011;50864;45.050;39.014;2022-08-19T06:36:06;237.15;;;61.35;;
64487;SDS011;50864;45.050;39.014;2022-08-19T06:38:32;270.65;;;68.80;;
64487;SDS011;50864;45.050;39.014;2022-08-19T06:41:05;294.42;;;71.85;;
64487;SDS011;50864;45.050;39.014;2022-08-19T06:43:31;266.40;;;64.70;;
64487;SDS011;50864;45.050;39.014;2022-08-19T06:45:56;265.25;;;62.22;;
64487;SDS011;50864;45.050;39.014;2022-08-19T06:48:24;216.63;;;55.85;;
64487;SDS011;50864;45.050;39.014;2022-08-19T06:50:50;213.32;;;55.00;;
64487;SDS011;50864;45.050;39.014;2022-08-19T06:53:17;189.45;;;48.87;;
64487;SDS011;50864;45.050;39.014;2022-08-19T06:55:45;135.98;;;37.25;;
64487;SDS011;50864;45.050;39.014;2022-08-19T06:58:11;137.85;;;37.20;;
64487;SDS011;50864;45.050;39.014;2022-08-19T07:00:37;127.18;;;34.58;;
64487;SDS011;50864;45.050;39.014;2022-08-19T07:03:03;74.28;;;21.73;;
64487;SDS011;50864;45.050;39.014;2022-08-19T07:05:29;50.17;;;15.80;;
64487;SDS011;50864;45.050;39.014;2022-08-19T07:07:55;55.78;;;17.65;;
64487;SDS011;50864;45.050;39.014;2022-08-19T07:10:22;50.63;;;16.25;;
64487;SDS011;50864;45.050;39.014;2022-08-19T07:12:48;54.33;;;16.58;;
64487;SDS011;50864;45.050;39.014;2022-08-19T07:15:15;44.85;;;14.70;;
64487;SDS011;50864;45.050;39.014;2022-08-19T07:17:41;51.92;;;16.85;;
64487;SDS011;50864;45.050;39.014;2022-08-19T07:20:09;195.43;;;22.20;;
64487;SDS011;50864;45.050;39.014;2022-08-19T07:22:36;30.10;;;10.73;;
64487;SDS011;50864;45.050;39.014;2022-08-19T07:25:02;66.55;;;13.30;;
64487;SDS011;50864;45.050;39.014;2022-08-19T07:27:29;73.18;;;11.57;;
64487;SDS011;50864;45.050;39.014;2022-08-19T07:29:55;23.62;;;8.30;;
64487;SDS011;50864;45.050;39.014;2022-08-19T07:32:21;22.52;;;7.82;;
64487;SDS011;50864;45.050;39.014;2022-08-19T07:34:47;23.48;;;9.18;;
64487;SDS011;50864;45.050;39.014;2022-08-19T07:37:12;19.33;;;8.77;;
64487;SDS011;50864;45.050;39.014;2022-08-19T07:39:39;20.62;;;8.13;;
64487;SDS011;50864;45.050;39.014;2022-08-19T07:42:08;17.62;;;7.53;;
64487;SDS011;50864;45.050;39.014;2022-08-19T07:44:35;18.87;;;7.95;;
64487;SDS011;50864;45.050;39.014;2022-08-19T07:47:02;24.50;;;8.57;;
64487;SDS011;50864;45.050;39.014;2022-08-19T07:49:28;15.07;;;7.10;;
64487;SDS011;50864;45.050;39.014;2022-08-19T07:52:01;19.85;;;7.65;;
64487;SDS011;50864;45.050;39.014;2022-08-19T07:54:30;24.67;;;8.45;;
64487;SDS011;50864;45.050;39.014;2022-08-19T07:56:56;18.48;;;6.82;;
64487;SDS011;50864;45.050;39.014;2022-08-19T07:59:22;16.60;;;7.57;;
64487;SDS011;50864;45.050;39.014;2022-08-19T08:01:49;15.15;;;7.05;;
64487;SDS011;50864;45.050;39.014;2022-08-19T08:04:16;17.30;;;7.47;;
64487;SDS011;50864;45.050;39.014;2022-08-19T08:07:00;14.57;;;6.57;;
64487;SDS011;50864;45.050;39.014;2022-08-19T08:09:45;14.57;;;6.95;;
64487;SDS011;50864;45.050;39.014;2022-08-19T08:14:45;20.45;;;8.48;;
64487;SDS011;50864;45.050;39.014;2022-08-19T08:17:13;20.02;;;8.52;;
64487;SDS011;50864;45.050;39.014;2022-08-19T08:19:39;25.17;;;9.63;;
64487;SDS011;50864;45.050;39.014;2022-08-19T08:22:07;34.72;;;11.77;;
64487;SDS011;50864;45.050;39.014;2022-08-19T08:24:33;34.15;;;12.05;;
64487;SDS011;50864;45.050;39.014;2022-08-19T08:27:01;40.95;;;13.93;;
64487;SDS011;50864;45.050;39.014;2022-08-19T08:29:28;18.45;;;7.78;;
64487;SDS011;50864;45.050;39.014;2022-08-19T08:31:55;23.38;;;8.73;;
64487;SDS011;50864;45.050;39.014;2022-08-19T08:34:22;19.35;;;8.02;;
64487;SDS011;50864;45.050;39.014;2022-08-19T08:36:48;27.13;;;9.13;;
64487;SDS011;50864;45.050;39.014;2022-08-19T08:39:16;26.90;;;10.15;;
64487;SDS011;50864;45.050;39.014;2022-08-19T08:44:16;22.55;;;10.35;;
64487;SDS011;50864;45.050;39.014;2022-08-19T08:46:55;25.70;;;9.07;;
64487;SDS011;50864;45.050;39.014;2022-08-19T08:49:33;15.60;;;7.80;;
64487;SDS011;50864;45.050;39.014;2022-08-19T08:52:04;22.35;;;8.98;;
64487;SDS011;50864;45.050;39.014;2022-08-19T08:54:51;15.05;;;7.47;;
64487;SDS011;50864;45.050;39.014;2022-08-19T08:57:23;21.25;;;9.05;;
64487;SDS011;50864;45.050;39.014;2022-08-19T08:59:51;20.50;;;8.63;;
64487;SDS011;50864;45.050;39.014;2022-08-19T09:02:19;19.95;;;8.40;;
64487;SDS011;50864;45.050;39.014;2022-08-19T09:04:45;21.98;;;9.43;;
64487;SDS011;50864;45.050;39.014;2022-08-19T09:09:50;33.78;;;10.40;;
64487;SDS011;50864;45.050;39.014;2022-08-19T09:15:04;26.25;;;9.75;;
64487;SDS011;50864;45.050;39.014;2022-08-19T09:17:31;16.60;;;7.53;;
64487;SDS011;50864;45.050;39.014;2022-08-19T09:22:43;20.48;;;8.40;;
64487;SDS011;50864;45.050;39.014;2022-08-19T09:25:15;20.43;;;7.93;;
64487;SDS011;50864;45.050;39.014;2022-08-19T09:27:42;18.17;;;7.62;;
64487;SDS011;50864;45.050;39.014;2022-08-19T09:30:09;20.65;;;7.35;;
64487;SDS011;50864;45.050;39.014;2022-08-19T09:32:35;19.10;;;8.18;;
64487;SDS011;50864;45.050;39.014;2022-08-19T09:35:01;15.13;;;5.72;;
64487;SDS011;50864;45.050;39.014;2022-08-19T09:37:27;16.37;;;7.25;;
64487;SDS011;50864;45.050;39.014;2022-08-19T09:39:53;24.08;;;9.05;;
64487;SDS011;50864;45.050;39.014;2022-08-19T09:42:19;15.75;;;6.72;;
64487;SDS011;50864;45.050;39.014;2022-08-19T09:44:45;32.13;;;11.80;;
64487;SDS011;50864;45.050;39.014;2022-08-19T09:47:12;43.15;;;14.40;;
64487;SDS011;50864;45.050;39.014;2022-08-19T09:49:39;42.83;;;13.93;;
64487;SDS011;50864;45.050;39.014;2022-08-19T09:52:06;66.43;;;21.48;;
64487;SDS011;50864;45.050;39.014;2022-08-19T09:54:33;64.80;;;21.30;;
64487;SDS011;50864;45.050;39.014;2022-08-19T09:57:00;78.18;;;23.45;;
64487;SDS011;50864;45.050;39.014;2022-08-19T09:59:26;51.75;;;19.23;;
64487;SDS011;50864;45.050;39.014;2022-08-19T10:01:52;120.05;;;32.85;;
64487;SDS011;50864;45.050;39.014;2022-08-19T10:04:19;80.15;;;24.42;;
64487;SDS011;50864;45.050;39.014;2022-08-19T10:06:46;98.55;;;28.77;;
64487;SDS011;50864;45.050;39.014;2022-08-19T10:09:14;108.70;;;30.10;;
64487;SDS011;50864;45.050;39.014;2022-08-19T10:11:42;62.95;;;19.95;;
64487;SDS011;50864;45.050;39.014;2022-08-19T10:14:08;132.20;;;34.95;;
64487;SDS011;50864;45.050;39.014;2022-08-19T10:16:35;164.90;;;41.22;;
64487;SDS011;50864;45.050;39.014;2022-08-19T10:19:02;104.25;;;31.08;;
64487;SDS011;50864;45.050;39.014;2022-08-19T10:21:30;126.12;;;34.85;;
64487;SDS011;50864;45.050;39.014;2022-08-19T10:23:58;126.47;;;38.22;;
64487;SDS011;50864;45.050;39.014;2022-08-19T10:26:26;124.45;;;34.42;;
64487;SDS011;50864;45.050;39.014;2022-08-19T10:28:52;184.02;;;47.08;;
64487;SDS011;50864;45.050;39.014;2022-08-19T10:31:19;172.48;;;45.42;;
64487;SDS011;50864;45.050;39.014;2022-08-19T10:33:46;195.90;;;48.47;;
64487;SDS011;50864;45.050;39.014;2022-08-19T10:36:15;129.30;;;36.13;;
64487;SDS011;50864;45.050;39.014;2022-08-19T10:38:43;187.37;;;47.33;;
64487;SDS011;50864;45.050;39.014;2022-08-19T10:41:12;114.28;;;33.67;;
64487;SDS011;50864;45.050;39.014;2022-08-19T10:43:38;110.12;;;32.90;;
64487;SDS011;50864;45.050;39.014;2022-08-19T10:46:06;143.98;;;39.05;;
64487;SDS011;50864;45.050;39.014;2022-08-19T10:48:32;177.68;;;45.33;;
64487;SDS011;50864;45.050;39.014;2022-08-19T10:50:59;171.87;;;42.85;;
64487;SDS011;50864;45.050;39.014;2022-08-19T10:53:43;123.30;;;34.83;;
64487;SDS011;50864;45.050;39.014;2022-08-19T10:56:09;165.10;;;41.25;;
64487;SDS011;50864;45.050;39.014;2022-08-19T10:58:54;196.60;;;47.55;;
64487;SDS011;50864;45.050;39.014;2022-08-19T11:01:22;68.45;;;23.60;;
64487;SDS011;50864;45.050;39.014;2022-08-19T11:03:47;55.72;;;20.65;;
64487;SDS011;50864;45.050;39.014;2022-08-19T11:06:14;74.90;;;25.55;;
64487;SDS011;50864;45.050;39.014;2022-08-19T11:08:39;50.22;;;18.83;;
64487;SDS011;50864;45.050;39.014;2022-08-19T11:11:07;46.28;;;18.25;;
64487;SDS011;50864;45.050;39.014;2022-08-19T11:13:34;46.37;;;16.08;;
64487;SDS011;50864;45.050;39.014;2022-08-19T11:16:03;44.30;;;17.27;;
64487;SDS011;50864;45.050;39.014;2022-08-19T11:18:30;46.05;;;17.90;;
64487;SDS011;50864;45.050;39.014;2022-08-19T11:21:04;41.20;;;18.35;;
64487;SDS011;50864;45.050;39.014;2022-08-19T11:23:31;48.08;;;19.12;;
64487;SDS011;50864;45.050;39.014;2022-08-19T11:25:57;37.83;;;16.05;;
64487;SDS011;50864;45.050;39.014;2022-08-19T11:28:25;40.67;;;16.27;;
64487;SDS011;50864;45.050;39.014;2022-08-19T11:30:50;32.30;;;14.20;;
64487;SDS011;50864;45.050;39.014;2022-08-19T11:33:16;38.80;;;15.90;;
64487;SDS011;50864;45.050;39.014;2022-08-19T11:35:42;32.42;;;13.38;;
64487;SDS011;50864;45.050;39.014;2022-08-19T11:38:08;32.47;;;12.80;;
64487;SDS011;50864;45.050;39.014;2022-08-19T11:40:34;30.92;;;13.40;;
64487;SDS011;50864;45.050;39.014;2022-08-19T11:43:00;38.78;;;12.70;;
64487;SDS011;50864;45.050;39.014;2022-08-19T11:45:26;38.72;;;11.85;;
64487;SDS011;50864;45.050;39.014;2022-08-19T11:47:53;31.83;;;12.88;;
64487;SDS011;50864;45.050;39.014;2022-08-19T11:50:19;27.60;;;10.70;;
64487;SDS011;50864;45.050;39.014;2022-08-19T11:52:45;22.95;;;9.18;;
64487;SDS011;50864;45.050;39.014;2022-08-19T11:55:12;28.15;;;10.93;;
64487;SDS011;50864;45.050;39.014;2022-08-19T11:57:38;24.75;;;11.00;;
64487;SDS011;50864;45.050;39.014;2022-08-19T12:00:06;28.58;;;11.07;;
64487;SDS011;50864;45.050;39.014;2022-08-19T12:02:33;18.45;;;7.35;;
64487;SDS011;50864;45.050;39.014;2022-08-19T12:04:59;26.80;;;11.35;;
64487;SDS011;50864;45.050;39.014;2022-08-19T12:07:27;26.37;;;10.52;;
64487;SDS011;50864;45.050;39.014;2022-08-19T12:09:55;31.00;;;12.32;;
64487;SDS011;50864;45.050;39.014;2022-08-19T12:12:21;24.70;;;9.93;;
64487;SDS011;50864;45.050;39.014;2022-08-19T12:14:48;23.80;;;9.70;;
64487;SDS011;50864;45.050;39.014;2022-08-19T12:17:16;23.10;;;9.38;;
64487;SDS011;50864;45.050;39.014;2022-08-19T12:19:42;24.70;;;10.60;;
64487;SDS011;50864;45.050;39.014;2022-08-19T12:22:08;32.75;;;10.60;;
64487;SDS011;50864;45.050;39.014;2022-08-19T12:24:34;31.37;;;12.60;;
64487;SDS011;50864;45.050;39.014;2022-08-19T12:27:00;27.77;;;12.40;;
64487;SDS011;50864;45.050;39.014;2022-08-19T12:29:27;31.02;;;12.25;;
64487;SDS011;50864;45.050;39.014;2022-08-19T12:31:54;20.60;;;9.57;;
64487;SDS011;50864;45.050;39.014;2022-08-19T12:34:27;24.37;;;10.20;;
64487;SDS011;50864;45.050;39.014;2022-08-19T12:37:00;31.48;;;12.93;;
64487;SDS011;50864;45.050;39.014;2022-08-19T12:39:26;29.92;;;10.80;;
64487;SDS011;50864;45.050;39.014;2022-08-19T12:41:52;25.85;;;11.98;;
64487;SDS011;50864;45.050;39.014;2022-08-19T12:44:19;30.08;;;11.82;;
64487;SDS011;50864;45.050;39.014;2022-08-19T12:46:45;28.85;;;12.10;;
64487;SDS011;50864;45.050;39.014;2022-08-19T12:49:10;23.25;;;10.80;;
64487;SDS011;50864;45.050;39.014;2022-08-19T12:51:37;29.98;;;12.48;;
64487;SDS011;50864;45.050;39.014;2022-08-19T12:54:03;33.83;;;12.88;;
64487;SDS011;50864;45.050;39.014;2022-08-19T12:56:30;28.15;;;11.80;;
64487;SDS011;50864;45.050;39.014;2022-08-19T12:59:03;25.67;;;9.88;;
64487;SDS011;50864;45.050;39.014;2022-08-19T13:01:29;23.45;;;10.43;;
64487;SDS011;50864;45.050;39.014;2022-08-19T13:03:58;28.17;;;9.60;;
64487;SDS011;50864;45.050;39.014;2022-08-19T13:06:25;23.65;;;9.90;;
64487;SDS011;50864;45.050;39.014;2022-08-19T13:08:51;23.87;;;8.70;;
64487;SDS011;50864;45.050;39.014;2022-08-19T13:11:18;25.70;;;9.80;;
64487;SDS011;50864;45.050;39.014;2022-08-19T13:13:45;33.50;;;11.88;;
64487;SDS011;50864;45.050;39.014;2022-08-19T13:16:11;35.28;;;12.88;;
64487;SDS011;50864;45.050;39.014;2022-08-19T13:18:38;33.63;;;13.02;;
64487;SDS011;50864;45.050;39.014;2022-08-19T13:21:05;41.22;;;15.90;;
64487;SDS011;50864;45.050;39.014;2022-08-19T13:23:32;31.48;;;13.05;;
64487;SDS011;50864;45.050;39.014;2022-08-19T13:25:58;29.20;;;12.07;;
64487;SDS011;50864;45.050;39.014;2022-08-19T13:28:25;24.20;;;10.05;;
64487;SDS011;50864;45.050;39.014;2022-08-19T13:30:51;29.87;;;11.20;;
64487;SDS011;50864;45.050;39.014;2022-08-19T13:33:52;29.17;;;12.30;;
64487;SDS011;50864;45.050;39.014;2022-08-19T13:36:18;34.75;;;13.05;;
64487;SDS011;50864;45.050;39.014;2022-08-19T13:38:44;33.80;;;11.60;;
64487;SDS011;50864;45.050;39.014;2022-08-19T13:41:10;48.97;;;14.90;;
64487;SDS011;50864;45.050;39.014;2022-08-19T13:43:36;30.58;;;12.50;;
64487;SDS011;50864;45.050;39.014;2022-08-19T13:46:07;27.45;;;12.20;;
64487;SDS011;50864;45.050;39.014;2022-08-19T13:48:33;28.10;;;12.05;;
64487;SDS011;50864;45.050;39.014;2022-08-19T13:50:59;41.30;;;15.98;;
64487;SDS011;50864;45.050;39.014;2022-08-19T13:53:25;35.15;;;14.30;;
64487;SDS011;50864;45.050;39.014;2022-08-19T13:55:51;41.42;;;14.57;;
64487;SDS011;50864;45.050;39.014;2022-08-19T13:58:21;34.30;;;15.18;;
64487;SDS011;50864;45.050;39.014;2022-08-19T14:00:47;39.50;;;16.27;;
64487;SDS011;50864;45.050;39.014;2022-08-19T14:03:15;44.72;;;20.67;;
64487;SDS011;50864;45.050;39.014;2022-08-19T14:05:41;41.50;;;16.52;;
64487;SDS011;50864;45.050;39.014;2022-08-19T14:08:07;63.25;;;25.35;;
64487;SDS011;50864;45.050;39.014;2022-08-19T14:10:33;73.15;;;26.45;;
64487;SDS011;50864;45.050;39.014;2022-08-19T14:13:00;54.47;;;21.48;;
64487;SDS011;50864;45.050;39.014;2022-08-19T14:15:27;57.85;;;22.95;;
64487;SDS011;50864;45.050;39.014;2022-08-19T14:17:53;60.65;;;22.73;;
64487;SDS011;50864;45.050;39.014;2022-08-19T14:20:19;64.60;;;24.60;;
64487;SDS011;50864;45.050;39.014;2022-08-19T14:22:45;64.53;;;23.02;;